Time;durP1;ratioP1;P1;durP2;ratioP2;P2;SDS_P1;SDS_P2;PMS_P1;PMS_P2;Temp;Humidity;BMP_temperature;BMP_pressure;BME280_temperature;BME280_humidity;BME280_pressure;Samples;Min_cycle;Max_cycle;Signal;HPM_P1;HPM_P2
2022/09/13 00:01:50;;;;;;;1.00;1.00;;;;;;;;;;5111036;28;20202;-78
2022/09/13 00:04:18;;;;;;;1.73;1.33;;;;;;;;;;5110906;28;20209;-78
2022/09/13 00:06:45;;;;;;;1.63;0.90;;;;;;;;;;5110912;28;20203;-78
2022/09/13 00:09:11;;;;;;;1.40;1.30;;;;;;;;;;5110774;28;20259;-78
2022/09/13 00:11:38;;;;;;;1.23;1.00;;;;;;;;;;5110912;28;20200;-78
2022/09/13 00:14:05;;;;;;;1.07;1.07;;;;;;;;;;5111046;28;20586;-79
2022/09/13 00:16:32;;;;;;;1.47;1.30;;;;;;;;;;5096218;28;20230;-79
2022/09/13 00:18:59;;;;;;;1.10;1.10;;;;;;;;;;5111227;28;20197;-78
2022/09/13 00:21:28;;;;;;;1.13;1.13;;;;;;;;;;5110638;28;20235;-79
2022/09/13 00:23:55;;;;;;;1.40;1.30;;;;;;;;;;5111027;28;20197;-78
2022/09/13 00:26:23;;;;;;;0.97;0.97;;;;;;;;;;5110667;28;20195;-78
2022/09/13 00:28:51;;;;;;;1.60;1.50;;;;;;;;;;5110823;28;20200;-78
2022/09/13 00:31:19;;;;;;;1.07;1.07;;;;;;;;;;5110745;28;20273;-78
2022/09/13 00:33:45;;;;;;;1.17;1.13;;;;;;;;;;5110921;28;20196;-78
2022/09/13 00:36:14;;;;;;;1.40;1.30;;;;;;;;;;5111081;28;20205;-78
2022/09/13 00:38:42;;;;;;;1.30;1.20;;;;;;;;;;5110410;28;20287;-78
2022/09/13 00:41:12;;;;;;;1.37;1.27;;;;;;;;;;5110970;28;20638;-78
2022/09/13 00:43:46;;;;;;;1.10;1.10;;;;;;;;;;5112490;28;20204;-78
2022/09/13 00:46:16;;;;;;;0.93;0.93;;;;;;;;;;5114551;28;20213;-78
2022/09/13 00:48:45;;;;;;;1.00;1.00;;;;;;;;;;5115023;28;20203;-78
2022/09/13 00:51:11;;;;;;;1.13;1.13;;;;;;;;;;5113962;28;20265;-78
2022/09/13 00:53:40;;;;;;;1.23;1.23;;;;;;;;;;5114801;28;20207;-78
2022/09/13 00:56:11;;;;;;;1.10;1.10;;;;;;;;;;5114208;28;20231;-78
2022/09/13 00:58:41;;;;;;;0.80;0.80;;;;;;;;;;5114598;27;20203;-78
2022/09/13 01:01:10;;;;;;;1.40;1.30;;;;;;;;;;5114106;28;20634;-78
2022/09/13 01:03:38;;;;;;;1.27;1.17;;;;;;;;;;5114138;28;20202;-78
2022/09/13 01:06:08;;;;;;;1.00;0.90;;;;;;;;;;5114207;27;20200;-77
2022/09/13 01:08:37;;;;;;;1.00;1.00;;;;;;;;;;5114131;28;20209;-79
2022/09/13 01:11:05;;;;;;;1.23;1.23;;;;;;;;;;5114049;28;20766;-78
2022/09/13 01:13:34;;;;;;;1.30;1.20;;;;;;;;;;5114335;28;20705;-77
2022/09/13 01:16:01;;;;;;;1.27;1.20;;;;;;;;;;5101487;28;20236;-78
2022/09/13 01:18:28;;;;;;;1.03;1.00;;;;;;;;;;5112344;28;20196;-78
2022/09/13 01:21:27;;;;;;;0.70;0.70;;;;;;;;;;5113902;28;20678;-78
2022/09/13 01:24:07;;;;;;;1.07;1.00;;;;;;;;;;5100643;28;20238;-78
2022/09/13 01:27:05;;;;;;;1.20;1.10;;;;;;;;;;5113755;28;20596;-79
2022/09/13 01:30:05;;;;;;;0.90;0.90;;;;;;;;;;5087796;28;20212;-78
2022/09/13 01:32:53;;;;;;;1.00;1.00;;;;;;;;;;5079864;28;20701;-78
2022/09/13 01:35:28;;;;;;;1.00;1.00;;;;;;;;;;5111607;28;20227;-78
2022/09/13 01:37:58;;;;;;;1.00;0.90;;;;;;;;;;5113544;28;20211;-78
2022/09/13 01:40:35;;;;;;;0.80;0.80;;;;;;;;;;5113635;28;20694;-78
2022/09/13 01:43:19;;;;;;;0.97;0.97;;;;;;;;;;5113697;28;20212;-78
2022/09/13 01:45:53;;;;;;;1.00;1.00;;;;;;;;;;5113455;28;20203;-78
2022/09/13 01:48:23;;;;;;;0.90;0.90;;;;;;;;;;5113344;28;20229;-77
2022/09/13 01:50:55;;;;;;;1.07;1.07;;;;;;;;;;5113642;27;20204;-78
2022/09/13 01:53:29;;;;;;;1.03;1.03;;;;;;;;;;5113444;28;20682;-78
2022/09/13 01:56:01;;;;;;;1.50;1.40;;;;;;;;;;5112719;28;20224;-78
2022/09/13 01:58:31;;;;;;;1.03;1.00;;;;;;;;;;5113507;28;20220;-79
2022/09/13 02:01:07;;;;;;;1.00;1.00;;;;;;;;;;5113564;28;20202;-78
2022/09/13 02:03:36;;;;;;;1.50;0.83;;;;;;;;;;5113393;28;20608;-79
2022/09/13 02:06:07;;;;;;;1.10;1.10;;;;;;;;;;5113090;28;20196;-78
2022/09/13 02:08:37;;;;;;;1.10;1.10;;;;;;;;;;5113752;27;20207;-78
2022/09/13 02:11:07;;;;;;;0.83;0.83;;;;;;;;;;5113535;28;20193;-79
2022/09/13 02:13:36;;;;;;;0.93;0.90;;;;;;;;;;5113508;27;20277;-79
2022/09/13 02:16:09;;;;;;;0.97;0.97;;;;;;;;;;5099861;28;20691;-78
2022/09/13 02:18:38;;;;;;;1.10;1.10;;;;;;;;;;5112240;28;20195;-78
2022/09/13 02:21:09;;;;;;;0.90;0.90;;;;;;;;;;5112848;28;20209;-78
2022/09/13 02:23:38;;;;;;;1.10;1.00;;;;;;;;;;5112720;28;20674;-79
2022/09/13 02:26:06;;;;;;;0.70;0.70;;;;;;;;;;5112949;28;20210;-79
2022/09/13 02:28:36;;;;;;;1.10;1.10;;;;;;;;;;5113160;28;20193;-78
2022/09/13 02:31:08;;;;;;;0.80;0.80;;;;;;;;;;5112223;28;20201;-78
2022/09/13 02:33:37;;;;;;;1.00;0.97;;;;;;;;;;5113130;28;20200;-79
2022/09/13 02:36:06;;;;;;;0.97;0.97;;;;;;;;;;5112657;28;20233;-79
2022/09/13 02:38:38;;;;;;;1.00;1.00;;;;;;;;;;5112621;28;20242;-78
2022/09/13 02:41:09;;;;;;;1.00;1.00;;;;;;;;;;5112409;28;20205;-78
2022/09/13 02:43:40;;;;;;;0.90;0.90;;;;;;;;;;5112122;28;20330;-79
2022/09/13 02:46:22;;;;;;;1.03;1.03;;;;;;;;;;5112313;28;20754;-79
2022/09/13 02:48:54;;;;;;;0.83;0.83;;;;;;;;;;5112266;27;20208;-78
2022/09/13 02:51:28;;;;;;;1.17;1.00;;;;;;;;;;5112179;28;20744;-79
2022/09/13 02:54:01;;;;;;;0.80;0.80;;;;;;;;;;5108467;28;20205;-79
2022/09/13 02:56:32;;;;;;;0.87;0.87;;;;;;;;;;5090409;28;20694;-79
2022/09/13 02:59:04;;;;;;;0.93;0.93;;;;;;;;;;5091016;28;20204;-79
2022/09/13 03:01:33;;;;;;;0.90;0.90;;;;;;;;;;5091209;28;20586;-79
2022/09/13 03:04:00;;;;;;;1.13;1.10;;;;;;;;;;5101287;28;20210;-79
2022/09/13 03:06:28;;;;;;;1.30;1.20;;;;;;;;;;5111071;28;20208;-79
2022/09/13 03:08:57;;;;;;;1.00;1.00;;;;;;;;;;5111612;28;20212;-79
2022/09/13 03:11:32;;;;;;;1.37;1.07;;;;;;;;;;5111943;28;20588;-79
2022/09/13 03:14:12;;;;;;;1.00;1.00;;;;;;;;;;5112072;28;20286;-79
2022/09/13 03:16:54;;;;;;;1.00;0.90;;;;;;;;;;5097236;28;20224;-78
2022/09/13 03:19:29;;;;;;;0.80;0.80;;;;;;;;;;5111913;28;20200;-79
2022/09/13 03:22:08;;;;;;;1.33;1.33;;;;;;;;;;5111516;28;20202;-79
2022/09/13 03:24:42;;;;;;;1.60;1.50;;;;;;;;;;5095493;28;20204;-80
2022/09/13 03:27:17;;;;;;;1.00;1.00;;;;;;;;;;5089964;28;20205;-79
2022/09/13 03:29:52;;;;;;;1.37;1.27;;;;;;;;;;5089725;28;20203;-79
2022/09/13 03:32:28;;;;;;;1.17;1.13;;;;;;;;;;5089533;28;20202;-79
2022/09/13 03:35:01;;;;;;;1.27;1.17;;;;;;;;;;5089555;28;20291;-79
2022/09/13 03:37:33;;;;;;;1.10;1.10;;;;;;;;;;5089628;28;20211;-79
2022/09/13 03:40:05;;;;;;;0.80;0.80;;;;;;;;;;5092682;28;20209;-79
2022/09/13 03:42:34;;;;;;;1.17;1.17;;;;;;;;;;5101432;28;20207;-81
2022/09/13 03:45:03;;;;;;;1.10;1.10;;;;;;;;;;5108292;28;20220;-81
2022/09/13 03:47:33;;;;;;;1.00;1.00;;;;;;;;;;5110428;28;20638;-81
2022/09/13 03:50:00;;;;;;;2.27;1.07;;;;;;;;;;5110025;28;20200;-81
2022/09/13 03:52:30;;;;;;;1.20;1.20;;;;;;;;;;5109929;28;20203;-80
2022/09/13 03:54:58;;;;;;;0.73;0.73;;;;;;;;;;5109961;28;20642;-81
2022/09/13 03:57:24;;;;;;;1.00;1.00;;;;;;;;;;5109957;28;20208;-81
2022/09/13 03:59:53;;;;;;;1.20;1.20;;;;;;;;;;5110101;28;20285;-80
2022/09/13 04:02:22;;;;;;;1.53;1.23;;;;;;;;;;5110004;28;20284;-80
2022/09/13 04:04:50;;;;;;;1.07;1.00;;;;;;;;;;5110228;28;20238;-80
2022/09/13 04:07:18;;;;;;;2.30;1.20;;;;;;;;;;5107754;28;20207;-80
2022/09/13 04:09:45;;;;;;;1.00;1.00;;;;;;;;;;5108415;28;20681;-80
2022/09/13 04:12:13;;;;;;;1.20;1.20;;;;;;;;;;5098525;28;20240;-81
2022/09/13 04:14:40;;;;;;;1.30;1.20;;;;;;;;;;5096309;28;20227;-81
2022/09/13 04:17:07;;;;;;;1.30;1.20;;;;;;;;;;5095700;28;20236;-81
2022/09/13 04:19:34;;;;;;;2.07;1.87;;;;;;;;;;5100672;28;20205;-80
2022/09/13 04:22:02;;;;;;;1.17;1.10;;;;;;;;;;5102012;28;20206;-81
2022/09/13 04:24:30;;;;;;;1.00;1.00;;;;;;;;;;5109569;28;20210;-81
2022/09/13 04:26:57;;;;;;;1.93;1.80;;;;;;;;;;5109679;28;20196;-80
2022/09/13 04:29:25;;;;;;;4.67;3.60;;;;;;;;;;5106472;28;20203;-80
2022/09/13 04:31:54;;;;;;;4.43;4.03;;;;;;;;;;5093829;28;20213;-80
2022/09/13 04:34:21;;;;;;;3.43;3.07;;;;;;;;;;5101724;28;20214;-80
2022/09/13 04:36:49;;;;;;;3.57;2.87;;;;;;;;;;5108961;28;20223;-80
2022/09/13 04:39:17;;;;;;;2.37;2.13;;;;;;;;;;5110999;28;20201;-81
2022/09/13 04:41:45;;;;;;;2.57;2.37;;;;;;;;;;5110224;28;20210;-80
2022/09/13 04:44:12;;;;;;;16.50;9.50;;;;;;;;;;5110786;28;20207;-80
2022/09/13 04:46:40;;;;;;;18.63;11.03;;;;;;;;;;5110105;28;20282;-80
2022/09/13 04:49:07;;;;;;;13.70;8.47;;;;;;;;;;5104837;28;20200;-80
2022/09/13 04:51:33;;;;;;;12.83;6.80;;;;;;;;;;5105732;28;20206;-81
2022/09/13 04:54:00;;;;;;;1.53;1.43;;;;;;;;;;5110365;28;20192;-80
2022/09/13 04:56:28;;;;;;;1.60;1.50;;;;;;;;;;5110321;28;20228;-81
2022/09/13 04:58:56;;;;;;;1.17;1.07;;;;;;;;;;5110392;28;20701;-81
2022/09/13 05:01:23;;;;;;;1.00;0.90;;;;;;;;;;5110202;28;20251;-81
2022/09/13 05:03:50;;;;;;;1.33;1.23;;;;;;;;;;5110225;28;20204;-81
2022/09/13 05:06:18;;;;;;;1.20;1.20;;;;;;;;;;5110663;28;20205;-81
2022/09/13 05:08:45;;;;;;;1.43;1.33;;;;;;;;;;5110402;28;20264;-81
2022/09/13 05:11:12;;;;;;;1.00;1.00;;;;;;;;;;5110512;28;20234;-81
2022/09/13 05:13:40;;;;;;;1.20;1.10;;;;;;;;;;5109991;28;20196;-80
2022/09/13 05:16:07;;;;;;;1.17;1.10;;;;;;;;;;5096915;28;20253;-80
2022/09/13 05:18:36;;;;;;;1.13;1.07;;;;;;;;;;5109477;28;20204;-81
2022/09/13 05:21:04;;;;;;;1.20;1.10;;;;;;;;;;5107054;28;20209;-80
2022/09/13 05:23:34;;;;;;;1.90;1.10;;;;;;;;;;5102605;28;20200;-81
2022/09/13 05:26:03;;;;;;;1.10;1.10;;;;;;;;;;5110259;28;20333;-81
2022/09/13 05:28:31;;;;;;;1.33;1.33;;;;;;;;;;5110365;28;20196;-81
2022/09/13 05:31:01;;;;;;;1.03;1.00;;;;;;;;;;5112282;28;20201;-81
2022/09/13 05:33:29;;;;;;;1.20;1.10;;;;;;;;;;5113473;28;20203;-81
2022/09/13 05:35:56;;;;;;;1.63;1.50;;;;;;;;;;5113662;28;20651;-81
2022/09/13 05:38:23;;;;;;;1.10;1.10;;;;;;;;;;5113877;28;20204;-80
2022/09/13 05:40:55;;;;;;;0.93;0.93;;;;;;;;;;5113447;28;20216;-81
2022/09/13 05:43:22;;;;;;;1.20;1.20;;;;;;;;;;5113839;28;20213;-80
2022/09/13 05:45:48;;;;;;;1.93;1.53;;;;;;;;;;5113787;28;20204;-81
2022/09/13 05:48:17;;;;;;;0.80;0.80;;;;;;;;;;5113734;28;20213;-81
2022/09/13 05:50:44;;;;;;;1.13;1.03;;;;;;;;;;5113060;28;20620;-80
2022/09/13 05:53:10;;;;;;;1.17;1.07;;;;;;;;;;5113386;28;20208;-80
2022/09/13 05:55:37;;;;;;;2.30;2.10;;;;;;;;;;5113175;28;20202;-80
2022/09/13 05:58:04;;;;;;;1.30;1.20;;;;;;;;;;5113325;28;20193;-81
2022/09/13 06:00:31;;;;;;;1.30;1.20;;;;;;;;;;5113239;28;20209;-81
2022/09/13 06:02:58;;;;;;;1.50;1.23;;;;;;;;;;5113175;28;20193;-81
2022/09/13 06:05:26;;;;;;;0.67;0.67;;;;;;;;;;5113505;28;20196;-80
2022/09/13 06:07:53;;;;;;;1.30;1.13;;;;;;;;;;5112449;28;20198;-81
2022/09/13 06:10:20;;;;;;;1.07;1.07;;;;;;;;;;5113436;28;20203;-81
2022/09/13 06:12:47;;;;;;;1.47;1.37;;;;;;;;;;5112465;28;20201;-81
2022/09/13 06:15:14;;;;;;;1.30;1.10;;;;;;;;;;5107290;27;20701;-81
2022/09/13 06:17:41;;;;;;;1.00;1.00;;;;;;;;;;5104353;28;20242;-81
2022/09/13 06:20:09;;;;;;;0.90;0.90;;;;;;;;;;5112728;28;20198;-80
2022/09/13 06:22:37;;;;;;;0.87;0.87;;;;;;;;;;5112541;28;20300;-81
2022/09/13 06:25:05;;;;;;;0.90;0.90;;;;;;;;;;5112914;27;20203;-81
2022/09/13 06:27:32;;;;;;;1.07;1.07;;;;;;;;;;5113065;28;20226;-81
2022/09/13 06:29:59;;;;;;;0.97;0.97;;;;;;;;;;5113003;28;20198;-81
2022/09/13 06:32:25;;;;;;;0.90;0.90;;;;;;;;;;5112226;28;20215;-81
2022/09/13 06:34:52;;;;;;;0.90;0.90;;;;;;;;;;5113017;28;20198;-80
2022/09/13 06:37:19;;;;;;;0.97;0.97;;;;;;;;;;5112191;28;20240;-81
2022/09/13 06:39:47;;;;;;;1.40;1.30;;;;;;;;;;5112863;28;20199;-81
2022/09/13 06:42:14;;;;;;;0.83;0.83;;;;;;;;;;5111935;28;20199;-80
2022/09/13 06:44:40;;;;;;;0.90;0.90;;;;;;;;;;5112454;28;20200;-81
2022/09/13 06:47:07;;;;;;;0.90;0.90;;;;;;;;;;5112293;28;20207;-81
2022/09/13 06:49:34;;;;;;;0.90;0.90;;;;;;;;;;5112190;28;20632;-81
2022/09/13 06:52:01;;;;;;;1.10;1.00;;;;;;;;;;5112157;28;20195;-80
2022/09/13 06:54:28;;;;;;;0.83;0.83;;;;;;;;;;5112005;28;20218;-81
2022/09/13 06:56:56;;;;;;;0.93;0.93;;;;;;;;;;5111857;28;20803;-81
2022/09/13 06:59:23;;;;;;;0.80;0.80;;;;;;;;;;5112685;28;20596;-81
2022/09/13 07:01:49;;;;;;;0.70;0.70;;;;;;;;;;5112059;28;20612;-81
2022/09/13 07:04:18;;;;;;;0.77;0.77;;;;;;;;;;5110161;28;20208;-80
2022/09/13 07:06:46;;;;;;;1.00;1.00;;;;;;;;;;5112119;28;20283;-81
2022/09/13 07:09:16;;;;;;;0.80;0.80;;;;;;;;;;5111902;28;20700;-81
2022/09/13 07:11:43;;;;;;;0.90;0.90;;;;;;;;;;5111608;28;20253;-80
2022/09/13 07:14:16;;;;;;;0.90;0.90;;;;;;;;;;5112281;28;20244;-80
2022/09/13 07:16:44;;;;;;;0.70;0.70;;;;;;;;;;5097182;28;20222;-80
2022/09/13 07:19:13;;;;;;;0.70;0.70;;;;;;;;;;5112194;28;20562;-80
2022/09/13 07:21:40;;;;;;;0.90;0.90;;;;;;;;;;5111606;28;20700;-80
2022/09/13 07:24:07;;;;;;;0.80;0.80;;;;;;;;;;5111419;28;20662;-81
2022/09/13 07:26:34;;;;;;;1.90;1.00;;;;;;;;;;5111421;28;20214;-81
2022/09/13 07:29:02;;;;;;;1.00;1.00;;;;;;;;;;5111669;28;20230;-81
2022/09/13 07:31:32;;;;;;;1.07;0.80;;;;;;;;;;5111875;28;20207;-81
2022/09/13 07:34:00;;;;;;;0.70;0.70;;;;;;;;;;5111579;28;20207;-81
2022/09/13 07:36:28;;;;;;;0.70;0.70;;;;;;;;;;5111259;28;20611;-81
2022/09/13 07:38:55;;;;;;;0.90;0.90;;;;;;;;;;5111395;28;20195;-80
2022/09/13 07:41:24;;;;;;;1.33;1.10;;;;;;;;;;5111533;28;20211;-80
2022/09/13 07:43:51;;;;;;;0.83;0.83;;;;;;;;;;5110806;28;20196;-81
2022/09/13 07:46:20;;;;;;;0.83;0.83;;;;;;;;;;5111323;28;20359;-81
2022/09/13 07:48:49;;;;;;;1.00;1.00;;;;;;;;;;5111174;28;20227;-81
2022/09/13 07:51:18;;;;;;;1.00;1.00;;;;;;;;;;5111501;28;20234;-81
2022/09/13 07:53:46;;;;;;;0.93;0.93;;;;;;;;;;5110437;28;20655;-81
2022/09/13 07:56:14;;;;;;;0.80;0.80;;;;;;;;;;5110833;28;20195;-79
2022/09/13 07:58:42;;;;;;;0.97;0.97;;;;;;;;;;5111365;28;20195;-80
2022/09/13 08:01:11;;;;;;;0.70;0.70;;;;;;;;;;5111048;28;20195;-81
2022/09/13 08:03:38;;;;;;;0.90;0.90;;;;;;;;;;5111215;28;20202;-80
2022/09/13 08:06:07;;;;;;;0.90;0.90;;;;;;;;;;5111254;28;20199;-80
2022/09/13 08:08:34;;;;;;;0.90;0.90;;;;;;;;;;5111031;28;20641;-80
2022/09/13 08:11:03;;;;;;;0.90;0.90;;;;;;;;;;5110571;28;20206;-80
2022/09/13 08:13:31;;;;;;;0.80;0.80;;;;;;;;;;5111023;28;20200;-80
2022/09/13 08:16:01;;;;;;;0.80;0.80;;;;;;;;;;5098211;28;20269;-79
2022/09/13 08:18:28;;;;;;;1.13;1.03;;;;;;;;;;5094400;28;20215;-80
2022/09/13 08:20:56;;;;;;;0.77;0.77;;;;;;;;;;5110776;28;20199;-79
2022/09/13 08:23:24;;;;;;;0.90;0.90;;;;;;;;;;5110595;28;20210;-80
2022/09/13 08:25:51;;;;;;;0.93;0.93;;;;;;;;;;5110683;28;20211;-80
2022/09/13 08:28:20;;;;;;;1.47;1.13;;;;;;;;;;5110830;28;20222;-81
2022/09/13 08:30:47;;;;;;;1.00;0.90;;;;;;;;;;5111031;28;20227;-80
2022/09/13 08:33:16;;;;;;;0.80;0.80;;;;;;;;;;5110442;28;20203;-80
2022/09/13 08:35:50;;;;;;;1.10;1.00;;;;;;;;;;5096649;28;20278;-80
2022/09/13 08:38:17;;;;;;;0.80;0.80;;;;;;;;;;5110857;28;20226;-80
2022/09/13 08:40:50;;;;;;;0.77;0.77;;;;;;;;;;5110795;28;20199;-80
2022/09/13 08:43:22;;;;;;;1.57;1.10;;;;;;;;;;5110551;28;20214;-81
2022/09/13 08:45:50;;;;;;;0.90;0.90;;;;;;;;;;5110531;28;20200;-80
2022/09/13 08:48:19;;;;;;;0.90;0.90;;;;;;;;;;5110446;28;20677;-80
2022/09/13 08:50:47;;;;;;;1.63;1.53;;;;;;;;;;5110543;28;20203;-81
2022/09/13 08:53:20;;;;;;;1.63;1.53;;;;;;;;;;5110698;28;20202;-80
2022/09/13 08:55:52;;;;;;;0.80;0.80;;;;;;;;;;5110043;28;20587;-81
2022/09/13 08:58:40;;;;;;;1.07;1.07;;;;;;;;;;5110529;28;20215;-80
2022/09/13 09:01:10;;;;;;;1.10;1.10;;;;;;;;;;5110210;28;20207;-80
2022/09/13 09:03:42;;;;;;;0.80;0.80;;;;;;;;;;5110771;28;20222;-80
2022/09/13 09:06:14;;;;;;;0.90;0.90;;;;;;;;;;5111965;28;20286;-80
2022/09/13 09:08:45;;;;;;;1.33;1.23;;;;;;;;;;5114304;28;20200;-80
2022/09/13 09:11:23;;;;;;;0.87;0.87;;;;;;;;;;5114024;28;20241;-80
2022/09/13 09:13:52;;;;;;;0.97;0.97;;;;;;;;;;5114466;28;20218;-80
2022/09/13 09:16:28;;;;;;;1.00;1.00;;;;;;;;;;5099555;28;20786;-80
2022/09/13 09:18:56;;;;;;;0.80;0.80;;;;;;;;;;5113977;28;20677;-80
2022/09/13 09:21:23;;;;;;;0.90;0.90;;;;;;;;;;5114487;28;20199;-80
2022/09/13 09:23:51;;;;;;;0.80;0.80;;;;;;;;;;5113680;28;20245;-80
2022/09/13 09:26:21;;;;;;;0.70;0.70;;;;;;;;;;5114250;28;20211;-80
2022/09/13 09:28:48;;;;;;;1.40;0.90;;;;;;;;;;5113788;28;20195;-80
2022/09/13 09:31:19;;;;;;;1.10;1.07;;;;;;;;;;5114178;28;20207;-80
2022/09/13 09:33:57;;;;;;;1.63;1.53;;;;;;;;;;5114328;28;20199;-80
2022/09/13 09:36:33;;;;;;;0.90;0.90;;;;;;;;;;5113206;28;20203;-80
2022/09/13 09:39:00;;;;;;;1.20;1.10;;;;;;;;;;5114033;28;20223;-80
2022/09/13 09:41:30;;;;;;;1.90;1.00;;;;;;;;;;5113382;28;20203;-80
2022/09/13 09:44:02;;;;;;;1.00;1.00;;;;;;;;;;5113663;28;20200;-80
2022/09/13 09:46:33;;;;;;;0.70;0.70;;;;;;;;;;5113157;28;20713;-80
2022/09/13 09:50:07;;;;;;;1.20;1.10;;;;;;;;;;5113352;28;20213;-80
2022/09/13 09:51:56;;;;;;;0.87;0.87;;;;;;;;;;5113327;28;20206;-80
2022/09/13 09:54:24;;;;;;;0.80;0.80;;;;;;;;;;5113421;28;20278;-80
2022/09/13 09:56:54;;;;;;;1.30;1.30;;;;;;;;;;5113217;28;20203;-80
2022/09/13 09:59:31;;;;;;;0.90;0.90;;;;;;;;;;5113271;28;20203;-80
2022/09/13 10:01:57;;;;;;;0.90;0.90;;;;;;;;;;5113608;28;20196;-80
2022/09/13 10:04:25;;;;;;;0.80;0.80;;;;;;;;;;5113665;28;20195;-80
2022/09/13 10:07:09;;;;;;;0.73;0.73;;;;;;;;;;5112934;28;20290;-80
2022/09/13 10:09:38;;;;;;;0.80;0.80;;;;;;;;;;5113083;28;20196;-80
2022/09/13 10:12:07;;;;;;;0.70;0.70;;;;;;;;;;5113000;28;21048;-82
2022/09/13 10:14:38;;;;;;;0.80;0.80;;;;;;;;;;5113000;28;20253;-81
2022/09/13 10:17:15;;;;;;;1.10;0.97;;;;;;;;;;5099375;28;20304;-82
2022/09/13 10:19:52;;;;;;;0.80;0.80;;;;;;;;;;5113352;28;20265;-81
2022/09/13 10:22:19;;;;;;;0.80;0.80;;;;;;;;;;5112774;27;20199;-81
2022/09/13 10:24:49;;;;;;;0.60;0.60;;;;;;;;;;5112819;28;20206;-80
2022/09/13 10:27:24;;;;;;;0.73;0.73;;;;;;;;;;5112889;28;20210;-81
2022/09/13 10:29:54;;;;;;;0.70;0.70;;;;;;;;;;5112673;28;20200;-81
2022/09/13 10:32:21;;;;;;;2.73;0.90;;;;;;;;;;5112963;28;20199;-81
2022/09/13 10:34:48;;;;;;;1.07;1.07;;;;;;;;;;5112504;28;20596;-81
2022/09/13 10:37:18;;;;;;;0.70;0.70;;;;;;;;;;5112561;28;20215;-81
2022/09/13 10:39:55;;;;;;;1.00;1.00;;;;;;;;;;5112843;28;20773;-81
2022/09/13 10:42:25;;;;;;;0.53;0.53;;;;;;;;;;5112222;28;20196;-81
2022/09/13 10:44:54;;;;;;;0.60;0.60;;;;;;;;;;5112256;28;20206;-81
2022/09/13 10:47:24;;;;;;;1.40;1.10;;;;;;;;;;5112144;28;20258;-80
2022/09/13 10:49:55;;;;;;;0.80;0.80;;;;;;;;;;5112405;28;20207;-80
2022/09/13 10:52:25;;;;;;;0.70;0.70;;;;;;;;;;5112045;28;20210;-80
2022/09/13 10:54:52;;;;;;;1.57;1.10;;;;;;;;;;5112260;28;20276;-79
2022/09/13 10:57:36;;;;;;;1.10;1.00;;;;;;;;;;5111933;28;20204;-79
2022/09/13 11:00:07;;;;;;;0.73;0.73;;;;;;;;;;5112187;28;20210;-79
2022/09/13 11:02:58;;;;;;;0.80;0.80;;;;;;;;;;5112078;28;20749;-79
2022/09/13 11:05:27;;;;;;;0.77;0.77;;;;;;;;;;5104616;28;20666;-79
2022/09/13 11:08:22;;;;;;;0.80;0.80;;;;;;;;;;5111483;28;20229;-79
2022/09/13 11:11:00;;;;;;;1.00;1.00;;;;;;;;;;5106608;28;20218;-79
2022/09/13 11:13:39;;;;;;;1.27;1.03;;;;;;;;;;5111937;28;20195;-79
2022/09/13 11:16:12;;;;;;;1.13;1.03;;;;;;;;;;5098438;28;20224;-79
2022/09/13 11:18:59;;;;;;;0.60;0.60;;;;;;;;;;5111603;28;20227;-80
2022/09/13 11:21:36;;;;;;;0.87;0.87;;;;;;;;;;5111838;28;20206;-80
2022/09/13 11:24:32;;;;;;;0.80;0.80;;;;;;;;;;5111948;28;20196;-80
2022/09/13 11:27:03;;;;;;;1.10;1.10;;;;;;;;;;5111254;28;21028;-80
2022/09/13 11:30:05;;;;;;;0.97;0.97;;;;;;;;;;5111864;28;20203;-79
2022/09/13 11:32:46;;;;;;;0.70;0.70;;;;;;;;;;5111352;28;20256;-80
2022/09/13 11:35:28;;;;;;;0.73;0.73;;;;;;;;;;5111022;28;20199;-80
2022/09/13 11:37:59;;;;;;;1.20;1.10;;;;;;;;;;5111059;28;20230;-81
2022/09/13 11:40:35;;;;;;;1.00;1.00;;;;;;;;;;5111875;28;20253;-80
2022/09/13 11:43:11;;;;;;;0.70;0.70;;;;;;;;;;5111081;28;20214;-81
2022/09/13 11:45:40;;;;;;;1.03;1.03;;;;;;;;;;5111177;28;20195;-80
2022/09/13 11:48:36;;;;;;;0.90;0.90;;;;;;;;;;5110806;28;20622;-80
2022/09/13 11:51:11;;;;;;;0.80;0.80;;;;;;;;;;5083302;28;20200;-79
2022/09/13 11:53:52;;;;;;;0.70;0.70;;;;;;;;;;5111375;28;20248;-80
2022/09/13 11:56:22;;;;;;;0.97;0.90;;;;;;;;;;5111160;28;20286;-79
2022/09/13 11:58:52;;;;;;;0.90;0.90;;;;;;;;;;5111704;28;20219;-79
2022/09/13 12:01:21;;;;;;;0.80;0.80;;;;;;;;;;5111335;28;20203;-80
2022/09/13 12:03:54;;;;;;;0.97;0.97;;;;;;;;;;5111367;27;20214;-80
2022/09/13 12:06:26;;;;;;;1.07;0.87;;;;;;;;;;5110493;28;20718;-79
2022/09/13 12:08:56;;;;;;;0.80;0.80;;;;;;;;;;5110942;28;20208;-80
2022/09/13 12:11:25;;;;;;;0.90;0.90;;;;;;;;;;5110766;28;20203;-79
2022/09/13 12:13:54;;;;;;;0.70;0.70;;;;;;;;;;5110959;28;20200;-80
2022/09/13 12:16:23;;;;;;;0.80;0.80;;;;;;;;;;5096678;28;20604;-80
2022/09/13 12:18:54;;;;;;;0.90;0.90;;;;;;;;;;5110574;28;20728;-79
2022/09/13 12:21:23;;;;;;;1.13;0.97;;;;;;;;;;5110745;28;20203;-79
2022/09/13 12:23:55;;;;;;;0.70;0.70;;;;;;;;;;5111265;28;20205;-79
2022/09/13 12:26:25;;;;;;;0.97;0.97;;;;;;;;;;5110574;28;20210;-80
2022/09/13 12:28:57;;;;;;;1.00;1.00;;;;;;;;;;5110857;28;20195;-79
2022/09/13 12:31:26;;;;;;;1.07;1.07;;;;;;;;;;5110590;28;20219;-79
2022/09/13 12:33:55;;;;;;;1.00;1.00;;;;;;;;;;5110795;28;20199;-79
2022/09/13 12:36:48;;;;;;;0.80;0.80;;;;;;;;;;5110968;28;20652;-80
2022/09/13 12:39:52;;;;;;;0.50;0.50;;;;;;;;;;5111521;28;20305;-80
2022/09/13 12:42:40;;;;;;;1.03;1.03;;;;;;;;;;5114664;28;20260;-79
2022/09/13 12:45:17;;;;;;;0.83;0.83;;;;;;;;;;5114875;28;20210;-80
2022/09/13 12:47:55;;;;;;;0.60;0.60;;;;;;;;;;5115270;28;20195;-79
2022/09/13 12:50:46;;;;;;;1.50;1.50;;;;;;;;;;5114759;28;20214;-79
2022/09/13 12:53:32;;;;;;;1.00;0.90;;;;;;;;;;5114774;28;20203;-79
2022/09/13 12:56:11;;;;;;;0.97;0.97;;;;;;;;;;5113501;28;20204;-79
2022/09/13 12:59:09;;;;;;;1.00;1.00;;;;;;;;;;5114230;28;20321;-80
2022/09/13 13:01:37;;;;;;;0.70;0.70;;;;;;;;;;5114480;28;20212;-79
2022/09/13 13:04:09;;;;;;;0.97;0.97;;;;;;;;;;5114399;28;20199;-79
2022/09/13 13:06:39;;;;;;;0.80;0.80;;;;;;;;;;5114118;27;20195;-79
2022/09/13 13:09:24;;;;;;;1.60;1.50;;;;;;;;;;5114330;28;20204;-80
2022/09/13 13:11:53;;;;;;;0.90;0.90;;;;;;;;;;5114250;28;20203;-79
2022/09/13 13:14:29;;;;;;;0.80;0.80;;;;;;;;;;5114656;27;20290;-79
2022/09/13 13:17:29;;;;;;;0.70;0.70;;;;;;;;;;5099057;28;20271;-79
2022/09/13 13:19:56;;;;;;;1.07;1.00;;;;;;;;;;5113766;28;20215;-79
2022/09/13 13:22:52;;;;;;;1.30;1.20;;;;;;;;;;5114094;28;20199;-79
2022/09/13 13:25:34;;;;;;;1.13;1.13;;;;;;;;;;5113958;28;20204;-79
2022/09/13 13:28:01;;;;;;;2.20;0.83;;;;;;;;;;5113952;28;20199;-79
2022/09/13 13:30:51;;;;;;;0.90;0.90;;;;;;;;;;5114120;28;20195;-79
2022/09/13 13:33:24;;;;;;;0.70;0.70;;;;;;;;;;5114025;28;20303;-80
2022/09/13 13:35:51;;;;;;;1.00;1.00;;;;;;;;;;5113819;28;20195;-80
2022/09/13 13:38:44;;;;;;;0.70;0.70;;;;;;;;;;5113643;28;20713;-80
2022/09/13 13:41:49;;;;;;;0.80;0.80;;;;;;;;;;5113578;27;20218;-81
2022/09/13 13:44:56;;;;;;;1.07;1.07;;;;;;;;;;5100015;28;20570;-80
2022/09/13 13:48:04;;;;;;;1.00;0.90;;;;;;;;;;5087490;28;20568;-80
2022/09/13 13:50:30;;;;;;;0.90;0.90;;;;;;;;;;5113157;28;20286;-79
2022/09/13 13:53:05;;;;;;;0.83;0.83;;;;;;;;;;5112419;28;20196;-79
2022/09/13 13:55:42;;;;;;;0.90;0.90;;;;;;;;;;5113711;28;20647;-79
2022/09/13 13:58:26;;;;;;;0.70;0.70;;;;;;;;;;5113278;28;20196;-79
2022/09/13 14:00:54;;;;;;;0.70;0.70;;;;;;;;;;5113454;28;20233;-78
2022/09/13 14:03:27;;;;;;;1.10;1.00;;;;;;;;;;5113256;28;20203;-79
2022/09/13 14:05:58;;;;;;;0.83;0.83;;;;;;;;;;5113314;28;20199;-79
2022/09/13 14:08:37;;;;;;;0.60;0.60;;;;;;;;;;5113138;28;20203;-79
2022/09/13 14:11:14;;;;;;;0.90;0.90;;;;;;;;;;5113131;28;20627;-79
2022/09/13 14:13:49;;;;;;;0.97;0.97;;;;;;;;;;5111130;28;20191;-78
2022/09/13 14:16:25;;;;;;;0.70;0.70;;;;;;;;;;5101793;28;20234;-78
2022/09/13 14:19:09;;;;;;;0.90;0.90;;;;;;;;;;5103844;28;20314;-78
2022/09/13 14:21:36;;;;;;;0.80;0.80;;;;;;;;;;5106914;28;20200;-79
2022/09/13 14:24:17;;;;;;;0.70;0.70;;;;;;;;;;5107809;28;20200;-79
2022/09/13 14:26:45;;;;;;;0.73;0.73;;;;;;;;;;5112887;28;20302;-79
2022/09/13 14:29:16;;;;;;;0.80;0.80;;;;;;;;;;5112893;28;20703;-79
2022/09/13 14:31:46;;;;;;;0.93;0.93;;;;;;;;;;5112302;28;20647;-78
2022/09/13 14:34:21;;;;;;;1.03;0.93;;;;;;;;;;5113234;28;20199;-78
2022/09/13 14:36:52;;;;;;;0.80;0.80;;;;;;;;;;5102545;28;20647;-78
2022/09/13 14:39:19;;;;;;;0.90;0.90;;;;;;;;;;5112841;28;20733;-78
2022/09/13 14:41:50;;;;;;;0.80;0.80;;;;;;;;;;5112053;28;20253;-79
2022/09/13 14:44:22;;;;;;;1.10;1.10;;;;;;;;;;5112594;28;20597;-78
2022/09/13 14:46:56;;;;;;;1.03;1.03;;;;;;;;;;5112015;28;20192;-78
2022/09/13 14:49:45;;;;;;;;;;;;;;;;;;;;;
2022/09/13 14:52:19;;;;;;;0.83;0.83;;;;;;;;;;5111698;28;20209;-79
2022/09/13 14:54:50;;;;;;;0.80;0.80;;;;;;;;;;5112669;28;20199;-78
2022/09/13 14:57:24;;;;;;;0.87;0.87;;;;;;;;;;5111687;28;20690;-78
2022/09/13 14:59:52;;;;;;;0.90;0.90;;;;;;;;;;5112449;28;20254;-78
2022/09/13 15:02:21;;;;;;;0.60;0.60;;;;;;;;;;5111686;28;20196;-79
2022/09/13 15:04:50;;;;;;;0.80;0.80;;;;;;;;;;5112569;28;20201;-78
2022/09/13 15:07:24;;;;;;;0.97;0.97;;;;;;;;;;5112093;28;20562;-78
2022/09/13 15:09:57;;;;;;;0.60;0.60;;;;;;;;;;5099429;28;20198;-78
2022/09/13 15:12:27;;;;;;;0.70;0.70;;;;;;;;;;5112033;28;20199;-78